Latest Weather Observations for Pirlangimpi

IDD60901

Issued at 11:51 am CST Friday 7 October 2022 (issued every 10 minutes, with the page automatically refreshed every 10 minutes)

About weather observations | Map of Darwin area stations | Latest observations for Darwin area | Other Formats
Station Details ID: 014142 Name: PIRLANGIMPI AIRPORT Lat: -11.40 Lon: 130.42 Height: 18.3 m
Data from the previous 72 hours. | See also: Recent months at Pirlangimpi
Date/Time
CST
Temp
°C
App
Temp
°C
Dew
Point
°C
Rel
Hum
%
Delta-T
°C
Wind Press
QNH
hPa
Press
MSL
hPa
Rain since
9am
mm
Dir  Spd
km/h
Gust
km/h
Spd
kts
Gust
kts
07/11:30am 32.6 36.5 23.0 57 6.6 SW 7 15 4 8 1011.5 1011.4 0.0
07/11:00am 31.3 35.2 22.9 61 5.8 SSW 7 11 4 6 1011.9 1011.8 0.0
07/10:30am 30.5 34.0 22.9 64 5.2 SSW 9 15 5 8 1012.2 1012.1 0.0
07/10:00am 31.0 34.5 23.6 64 5.1 SSW 11 17 6 9 1012.3 1012.2 0.0
07/09:30am 30.5 34.5 24.4 70 4.3 SSW 11 17 6 9 1012.2 1012.1 0.0
07/09:00am 29.8 35.1 24.9 75 3.4 SSW 6 9 3 5 1011.9 1011.8 0.0
07/08:30am 28.8 34.5 24.4 77 3.1 SSE 2 6 1 3 1011.6 1011.5 0.0
07/08:00am 27.4 33.5 25.6 90 1.3 SSE 4 6 2 3 1011.6 1011.5 0.0
07/07:30am 26.1 32.7 25.8 98 0.2 SSE 2 4 1 2 1011.3 1011.2 0.0
07/07:00am 25.1 31.3 24.6 97 0.3 CALM 0 0 0 0 1010.7 1010.6 0.0
07/06:30am 24.6 30.5 24.1 97 0.3 CALM 0 0 0 0 1010.4 1010.3 0.0
07/06:00am 24.8 30.8 24.3 97 0.3 CALM 0 0 0 0 1010.0 1009.9 0.0
07/05:30am 24.9 31.0 24.4 97 0.3 CALM 0 0 0 0 1009.8 1009.7 0.0
07/05:00am 24.8 30.7 24.1 96 0.5 CALM 0 0 0 0 1009.4 1009.3 0.0
07/04:30am 25.1 30.9 24.6 97 0.3 SE 2 4 1 2 1009.4 1009.3 0.0
07/04:00am 25.0 31.0 24.3 96 0.5 CALM 0 0 0 0 1009.4 1009.3 0.0
07/03:30am 24.9 30.9 24.2 96 0.5 CALM 0 0 0 0 1009.5 1009.4 0.0
07/03:00am 25.3 31.5 24.6 96 0.5 CALM 0 0 0 0 1009.7 1009.6 0.0
07/02:30am 25.3 31.5 24.6 96 0.5 CALM 0 0 0 0 1010.1 1010.0 0.0
07/02:00am 25.2 31.3 24.5 96 0.5 CALM 0 0 0 0 1010.2 1010.1 0.0
07/01:30am 25.0 30.8 24.0 94 0.7 CALM 0 0 0 0 1010.3 1010.2 0.0
07/01:00am 25.2 31.2 24.3 95 0.6 CALM 0 0 0 0 1010.7 1010.6 0.0
07/12:30am 25.3 31.3 24.3 94 0.7 CALM 0 0 0 0 1010.9 1010.8 0.0
07/12:00am 25.3 31.2 24.1 93 0.8 CALM 0 0 0 0 1011.2 1011.1 0.0
 
Date/Time
CST
Temp
°C
App
Temp
°C
Dew
Point
°C
Rel
Hum
%
Delta-T
°C
Wind Press
QNH
hPa
Press
MSL
hPa
Rain since
9am
mm
Dir  Spd
km/h
Gust
km/h
Spd
kts
Gust
kts
06/11:30pm 25.6 31.7 24.4 93 0.8 CALM 0 2 0 1 1011.4 1011.3 0.0
06/11:00pm 25.6 31.2 24.2 92 1.0 NE 2 4 1 2 1011.3 1011.2 0.0
06/10:30pm 25.7 31.6 24.1 91 1.1 CALM 0 0 0 0 1011.2 1011.1 0.0
06/10:00pm 25.9 31.7 23.9 89 1.4 CALM 0 0 0 0 1011.1 1011.0 0.0
06/09:30pm 26.1 31.8 23.8 87 1.6 CALM 0 0 0 0 1010.8 1010.7 0.0
06/09:00pm 26.2 31.8 23.5 85 1.8 CALM 0 0 0 0 1010.6 1010.5 0.0
06/08:30pm 26.6 32.2 23.5 83 2.1 CALM 0 0 0 0 1010.3 1010.2 0.0
06/08:00pm 27.2 32.6 23.2 79 2.7 CALM 0 2 0 1 1010.0 1009.9 0.0
06/07:30pm 28.2 33.3 23.3 75 3.4 N 2 6 1 3 1009.7 1009.6 0.0
06/07:00pm 28.8 33.3 23.0 71 4.0 N 4 9 2 5 1009.5 1009.4 0.0
06/06:30pm 29.8 34.2 22.8 66 4.8 NNE 4 11 2 6 1009.3 1009.2 0.0
06/06:00pm 30.8 33.9 22.1 59 5.9 NE 9 17 5 9 1008.8 1008.7 0.0
06/05:30pm 31.8 34.7 22.5 58 6.4 NE 11 19 6 10 1008.7 1008.6 0.0
06/05:00pm 31.4 34.6 21.6 56 6.6 NE 7 13 4 7 1008.7 1008.6 0.0
06/04:30pm 31.7 35.5 22.7 59 6.2 NNE 7 13 4 7 1008.4 1008.3 0.0
06/04:00pm 32.7 36.0 22.5 55 7.0 NE 9 17 5 9 1008.4 1008.3 0.0
06/03:30pm 33.0 36.4 22.7 54 7.1 NNE 9 19 5 10 1008.5 1008.4 0.0
06/03:00pm 33.1 36.7 23.1 55 6.9 NNE 9 20 5 11 1008.6 1008.5 0.0
06/02:30pm 33.5 36.7 22.3 52 7.7 N 9 24 5 13 1008.9 1008.8 0.0
06/02:00pm 34.3 36.8 21.7 47 8.6 ENE 11 22 6 12 1009.4 1009.3 0.0
06/01:30pm 35.0 38.2 23.0 49 8.3 NE 11 20 6 11 1010.2 1010.1 0.0
06/01:00pm 34.9 37.9 22.6 49 8.5 NE 11 24 6 13 1011.0 1010.9 0.0
06/12:30pm 33.7 36.2 22.5 52 7.7 ENE 13 20 7 11 1011.3 1011.2 0.0
06/12:00pm 33.4 36.5 22.8 53 7.3 E 11 22 6 12 1011.7 1011.6 0.0
06/11:30am 33.0 36.0 22.7 54 7.1 ENE 11 20 6 11 1012.1 1012.0 0.0
06/11:00am 32.5 35.2 23.4 58 6.3 ENE 15 22 8 12 1012.4 1012.3 0.0
06/10:30am 32.3 35.7 24.1 62 5.7 E 13 19 7 10 1012.6 1012.5 0.0
06/10:00am 32.0 35.2 23.0 59 6.2 ENE 11 19 6 10 1012.7 1012.6 0.0
06/09:30am 30.6 35.7 24.7 71 4.1 ENE 6 11 3 6 1012.5 1012.4 0.0
06/09:00am 29.8 35.7 25.3 77 3.2 SE 4 7 2 4 1012.6 1012.5 0.2
06/08:30am 28.1 33.2 24.7 82 2.4 SSE 6 7 3 4 1012.5 1012.4 0.2
06/08:00am 27.1 32.6 24.6 86 1.7 SSE 4 6 2 3 1012.4 1012.3 0.2
06/07:30am 25.8 30.9 24.0 90 1.2 SSE 4 6 2 3 1012.1 1012.0 0.2
06/07:00am 24.8 29.8 23.8 94 0.7 SSE 4 6 2 3 1011.8 1011.7 0.2
06/06:30am 24.4 29.7 23.7 96 0.5 SSE 2 4 1 2 1011.5 1011.4 0.2
06/06:00am 24.3 30.0 23.8 97 0.3 CALM 0 0 0 0 1010.9 1010.8 0.2
06/05:30am 24.2 29.9 23.7 97 0.3 CALM 0 4 0 2 1010.6 1010.5 0.2
06/05:00am 24.2 29.9 23.7 97 0.3 CALM 0 0 0 0 1010.4 1010.3 0.2
06/04:30am 24.4 30.2 23.9 97 0.3 CALM 0 0 0 0 1010.2 1010.1 0.2
06/04:00am 24.0 29.6 23.5 97 0.3 CALM 0 0 0 0 1010.0 1009.9 0.2
06/03:30am 24.0 29.6 23.5 97 0.3 CALM 0 0 0 0 1009.9 1009.8 0.2
06/03:00am 23.9 29.3 23.2 96 0.5 CALM 0 0 0 0 1010.0 1009.9 0.2
06/02:30am 24.0 29.4 23.3 96 0.5 CALM 0 0 0 0 1010.1 1010.0 0.2
06/02:00am 24.1 29.6 23.4 96 0.5 CALM 0 0 0 0 1010.2 1010.1 0.2
06/01:30am 24.1 29.6 23.4 96 0.5 CALM 0 0 0 0 1010.4 1010.3 0.2
06/01:00am 24.3 29.9 23.6 96 0.5 CALM 0 0 0 0 1010.8 1010.7 0.2
06/12:30am 24.3 29.9 23.6 96 0.5 CALM 0 0 0 0 1011.1 1011.0 0.2
06/12:00am 24.4 30.0 23.5 95 0.6 CALM 0 0 0 0 1011.5 1011.4 0.2
 
Date/Time
CST
Temp
°C
App
Temp
°C
Dew
Point
°C
Rel
Hum
%
Delta-T
°C
Wind Press
QNH
hPa
Press
MSL
hPa
Rain since
9am
mm
Dir  Spd
km/h
Gust
km/h
Spd
kts
Gust
kts
05/11:30pm 24.4 30.0 23.5 95 0.6 CALM 0 0 0 0 1011.7 1011.6 0.2
05/11:00pm 24.5 30.1 23.6 95 0.6 CALM 0 0 0 0 1011.7 1011.6 0.2
05/10:30pm 24.8 30.2 23.9 95 0.6 N 2 6 1 3 1011.7 1011.6 0.2
05/10:00pm 25.0 30.9 24.1 95 0.6 CALM 0 0 0 0 1011.5 1011.4 0.2
05/09:30pm 25.1 31.1 24.2 95 0.6 CALM 0 0 0 0 1011.3 1011.2 0.2
05/09:00pm 25.2 31.2 24.3 95 0.6 CALM 0 0 0 0 1011.1 1011.0 0.2
05/08:30pm 25.1 31.0 24.1 94 0.7 CALM 0 0 0 0 1010.8 1010.7 0.2
05/08:00pm 25.1 30.9 23.9 93 0.8 CALM 0 0 0 0 1010.5 1010.4 0.2
05/07:30pm 25.3 30.9 23.5 90 1.2 CALM 0 0 0 0 1010.0 1009.9 0.2
05/07:00pm 25.7 31.4 23.7 89 1.4 CALM 0 0 0 0 1009.8 1009.7 0.2
05/06:30pm 26.0 31.7 23.7 87 1.6 CALM 0 0 0 0 1009.4 1009.3 0.2
05/06:00pm 26.1 31.8 23.8 87 1.6 CALM 0 2 0 1 1009.1 1009.0 0.2
05/05:30pm 27.8 31.7 21.8 70 4.0 SSW 4 7 2 4 1009.1 1009.0 0.0
05/05:00pm 27.3 31.4 21.6 71 3.8 NW 2 2 1 1 1008.7 1008.6 0.0
05/04:30pm 27.9 31.6 21.4 67 4.3 SW 4 7 2 4 1008.6 1008.5 0.0
05/04:00pm 28.6 31.4 22.3 68 4.3 SSW 11 17 6 9 1008.3 1008.2 0.0
05/03:30pm 30.5 32.8 22.1 61 5.7 SSE 13 17 7 9 1008.2 1008.1 0.0
05/03:00pm 34.5 37.2 22.9 51 8.0 NE 13 28 7 15 1008.0 1007.9 0.0
05/02:30pm 34.0 37.2 23.1 53 7.6 N 11 20 6 11 1008.2 1008.1 0.0
05/02:00pm 32.2 36.7 22.9 58 6.4 N 4 15 2 8 1008.8 1008.7 0.0
05/01:30pm 33.2 36.9 22.3 52 7.5 SSW 6 9 3 5 1009.2 1009.1 0.0
05/01:00pm 34.4 38.6 23.1 51 7.8 N 6 13 3 7 1009.7 1009.6 0.0
05/12:30pm 34.5 37.5 21.9 48 8.6 E 9 20 5 11 1010.5 1010.4 0.0
05/12:00pm 34.1 36.3 21.9 49 8.3 ESE 13 20 7 11 1011.0 1010.9 0.0
05/11:30am 34.4 36.9 21.8 48 8.6 ENE 11 17 6 9 1011.4 1011.3 0.0
05/11:00am 33.0 35.2 21.2 50 8.0 E 11 22 6 12 1011.7 1011.6 0.0
05/10:30am 32.8 36.3 22.9 56 6.8 E 9 17 5 9 1011.7 1011.6 0.0
05/10:00am 31.7 35.3 23.0 60 6.0 E 9 13 5 7 1011.9 1011.8 0.0
05/09:30am 31.1 35.6 24.0 66 4.9 E 7 13 4 7 1011.7 1011.6 0.0
05/09:00am 30.2 34.1 23.6 67 4.6 E 9 13 5 7 1011.5 1011.4 0.0
05/08:30am 29.0 33.0 23.7 73 3.7 ESE 9 13 5 7 1011.1 1011.0 0.0
05/08:00am 27.9 32.8 24.3 81 2.5 ESE 6 9 3 5 1010.7 1010.6 0.0
05/07:30am 26.1 31.7 24.3 90 1.2 SE 2 4 1 2 1010.5 1010.4 0.0
05/07:00am 25.0 30.0 23.8 93 0.8 ESE 4 6 2 3 1010.1 1010.0 0.0
05/06:30am 24.9 29.7 23.5 92 1.0 E 4 6 2 3 1009.8 1009.7 0.0
05/06:00am 25.0 29.9 23.6 92 1.0 ESE 4 7 2 4 1009.6 1009.5 0.0
05/05:30am 24.8 29.9 23.4 92 1.0 SSE 2 6 1 3 1009.3 1009.2 0.0
05/05:00am 25.0 29.9 23.6 92 1.0 SE 4 6 2 3 1009.1 1009.0 0.0
05/04:30am 24.9 29.7 23.5 92 1.0 ESE 4 9 2 5 1008.9 1008.8 0.0
05/04:00am 24.9 30.1 23.5 92 1.0 SE 2 4 1 2 1008.8 1008.7 0.0
05/03:30am 25.0 30.1 23.4 91 1.1 SE 2 4 1 2 1008.9 1008.8 0.0
05/03:00am 25.1 29.9 23.5 91 1.1 ESE 4 6 2 3 1009.3 1009.2 0.0
05/02:30am 25.0 30.1 23.4 91 1.1 SE 2 4 1 2 1009.5 1009.4 0.0
05/02:00am 24.9 29.5 23.1 90 1.2 SE 4 6 2 3 1009.7 1009.6 0.0
05/01:30am 25.0 29.5 22.9 88 1.4 SE 4 6 2 3 1010.0 1009.9 0.0
05/01:00am 25.3 29.7 22.8 86 1.7 SE 4 6 2 3 1010.5 1010.4 0.0
05/12:30am 25.0 29.1 22.3 85 1.8 SE 4 6 2 3 1010.6 1010.5 0.0
05/12:00am 25.0 29.1 22.3 85 1.8 S 4 6 2 3 1010.9 1010.8 0.0
 
Date/Time
CST
Temp
°C
App
Temp
°C
Dew
Point
°C
Rel
Hum
%
Delta-T
°C
Wind Press
QNH
hPa
Press
MSL
hPa
Rain since
9am
mm
Dir  Spd
km/h
Gust
km/h
Spd
kts
Gust
kts
04/11:30pm 25.1 29.1 22.0 83 2.1 SE 4 6 2 3 1011.3 1011.2 0.0
04/11:00pm 24.9 29.0 22.2 85 1.8 SE 4 6 2 3 1011.6 1011.5 0.0
04/10:30pm 24.3 28.6 22.0 87 1.5 E 2 4 1 2 1011.4 1011.3 0.0
04/10:00pm 24.6 29.2 21.7 84 1.9 CALM 0 0 0 0 1011.4 1011.3 0.0
04/09:30pm 25.0 29.3 21.9 83 2.1 E 2 4 1 2 1011.7 1011.6 0.0
04/09:00pm 25.2 29.1 21.9 82 2.2 SE 4 6 2 3 1011.5 1011.4 0.0
04/08:30pm 25.4 28.9 21.9 81 2.3 S 6 7 3 4 1011.4 1011.3 0.0
04/08:00pm 25.6 29.3 22.3 82 2.2 S 6 7 3 4 1011.3 1011.2 0.0
04/07:30pm 25.7 29.3 22.0 80 2.5 SSE 6 9 3 5 1010.7 1010.6 0.0
04/07:00pm 26.1 29.5 21.7 77 2.9 SSE 6 9 3 5 1010.3 1010.2 0.0
04/06:30pm 26.6 29.7 21.4 73 3.5 SE 7 13 4 7 1009.7 1009.6 0.0
04/06:00pm 27.0 30.1 21.5 72 3.7 SSE 7 11 4 6 1009.2 1009.1 0.0
04/05:30pm 27.6 30.2 21.9 71 3.8 S 11 19 6 10 1008.6 1008.5 0.0
04/05:00pm 27.4 29.3 22.1 73 3.6 S 15 22 8 12 1008.4 1008.3 0.0
04/04:30pm 27.5 29.7 21.8 71 3.8 SSE 13 20 7 11 1008.5 1008.4 0.0
04/04:25pm 27.7 30.1 21.5 69 4.1 SSE 11 20 6 11 1008.5 1008.4 0.0
04/04:00pm 32.8 36.2 23.4 57 6.5 NNW 11 22 6 12 1008.3 1008.2 0.0
04/03:30pm 31.4 35.1 23.2 61 5.7 NNW 9 19 5 10 1008.5 1008.4 0.0
04/03:00pm 32.3 35.7 23.3 59 6.2 NW 11 20 6 11 1008.3 1008.2 0.0
04/02:30pm 32.4 36.1 23.9 61 5.9 NW 11 24 6 13 1008.5 1008.4 0.0
04/02:00pm 31.7 35.5 23.5 62 5.7 NW 9 20 5 11 1008.8 1008.7 0.0
04/01:30pm 31.3 34.0 22.9 61 5.8 NW 13 19 7 10 1009.4 1009.3 0.0
04/01:00pm 31.9 35.7 23.4 60 5.9 NNW 9 20 5 11 1010.0 1009.9 0.0
04/12:30pm 31.2 35.6 23.8 64 5.1 NW 7 15 4 8 1010.5 1010.4 0.0
04/12:00pm 32.0 36.1 23.0 59 6.2 WSW 6 11 3 6 1010.7 1010.6 0.0

Latest Capital City Observations: Canberra | Sydney | Melbourne | Brisbane | Adelaide | Perth | Hobart | Darwin

Other formats

Comma delimited format used in spreadsheet applications
http://www.bom.gov.au/fwo/IDD60901/IDD60901.94119.axf

JavaScript Object Notation format (JSON) in row-major order
http://www.bom.gov.au/fwo/IDD60901/IDD60901.94119.json

Data quality

Most of these data are generated automatically and are frequently updated. Quality checks on data are not normally performed. It is possible for incorrect values to appear. Refer to information at About Latest Weather Observations and please check the disclaimer before using these data.